createdAt,value
2023-05-05T00:00:01.373Z,1.23
2023-05-05T00:03:03.714Z,1.50
2023-05-05T00:06:06.569Z,1.25
2023-05-05T00:09:08.781Z,1.50
2023-05-05T00:12:11.006Z,1.12
2023-05-05T00:15:13.266Z,1.25
2023-05-05T00:18:17.044Z,1.33
2023-05-05T00:21:19.326Z,2.10
2023-05-05T00:24:21.518Z,1.42
2023-05-05T00:27:23.682Z,1.48
2023-05-05T00:30:27.626Z,1.45
2023-05-05T00:33:29.895Z,1.30
2023-05-05T00:36:32.038Z,1.40
2023-05-05T00:39:34.335Z,1.37
2023-05-05T00:42:47.723Z,1.67
2023-05-05T00:46:11.032Z,1.60
2023-05-05T00:49:13.313Z,1.33
2023-05-05T00:52:15.535Z,1.90
2023-05-05T00:55:17.924Z,1.70
2023-05-05T00:58:20.177Z,1.33
2023-05-05T01:01:22.410Z,1.42
2023-05-05T01:04:26.801Z,1.30
2023-05-05T01:07:43.340Z,1.50
2023-05-05T01:10:49.099Z,1.73
2023-05-05T01:14:03.151Z,1.35
2023-05-05T01:17:18.463Z,1.27
2023-05-05T01:20:46.033Z,1.20
2023-05-05T01:23:48.778Z,1.60
2023-05-05T01:27:35.610Z,1.40
2023-05-05T01:30:43.701Z,1.40
2023-05-05T01:33:51.566Z,1.70
2023-05-05T01:37:04.686Z,1.50
2023-05-05T01:40:08.446Z,1.23
2023-05-05T01:43:12.392Z,1.30
2023-05-05T01:46:15.616Z,1.35
2023-05-05T01:49:17.944Z,1.50
2023-05-05T01:52:20.686Z,1.70
2023-05-05T01:55:25.518Z,1.45
2023-05-05T01:58:29.050Z,1.42
2023-05-05T02:01:31.958Z,1.30
2023-05-05T02:04:36.467Z,1.55
2023-05-05T02:07:39.335Z,1.50
2023-05-05T02:10:41.774Z,1.62
2023-05-05T02:13:44.551Z,1.42
2023-05-05T02:16:47.246Z,1.37
2023-05-05T02:19:49.880Z,1.45
2023-05-05T02:22:52.072Z,1.73
2023-05-05T02:25:59.581Z,1.30
2023-05-05T02:29:09.323Z,1.42
2023-05-05T02:32:17.223Z,2.00
2023-05-05T02:35:32.526Z,1.73
2023-05-05T02:38:37.368Z,1.50
2023-05-05T02:41:41.491Z,1.77
2023-05-05T02:44:45.550Z,1.65
2023-05-05T02:47:47.778Z,1.52
2023-05-05T02:50:49.984Z,1.60
2023-05-05T02:53:52.594Z,1.62
2023-05-05T02:56:57.484Z,1.55
2023-05-05T03:00:21.727Z,1.50
2023-05-05T03:03:41.079Z,1.35
2023-05-05T03:06:47.779Z,1.70
2023-05-05T03:09:57.964Z,1.67
2023-05-05T03:13:01.625Z,1.67
2023-05-05T03:16:06.826Z,1.80
2023-05-05T03:19:11.446Z,1.92
2023-05-05T03:22:13.711Z,1.90
2023-05-05T03:25:15.878Z,1.42
2023-05-05T03:28:18.097Z,2.03
2023-05-05T03:31:20.310Z,1.92
2023-05-05T03:34:22.518Z,1.83
2023-05-05T03:37:24.772Z,1.83
2023-05-05T03:40:36.184Z,1.87
2023-05-05T03:43:42.848Z,1.77
2023-05-05T03:46:44.999Z,1.60
2023-05-05T03:49:47.143Z,1.90
2023-05-05T03:52:49.315Z,1.92
2023-05-05T03:55:52.448Z,2.15
2023-05-05T03:58:54.615Z,1.90
2023-05-05T04:01:56.940Z,2.00
2023-05-05T04:04:59.225Z,2.20
2023-05-05T04:08:01.512Z,1.58
2023-05-05T04:11:03.677Z,1.55
2023-05-05T04:14:05.848Z,2.78
2023-05-05T04:17:08.014Z,1.83
2023-05-05T04:20:10.540Z,2.10
2023-05-05T04:23:12.982Z,1.67
2023-05-05T04:26:15.168Z,1.75
2023-05-05T04:29:17.723Z,2.03
2023-05-05T04:32:19.998Z,2.00
2023-05-05T04:35:22.451Z,1.77
2023-05-05T04:38:24.749Z,2.40
2023-05-05T04:41:28.250Z,1.73
2023-05-05T04:44:32.433Z,2.33
2023-05-05T04:47:38.764Z,1.90
2023-05-05T04:50:40.992Z,2.33
2023-05-05T04:53:43.211Z,1.77
2023-05-05T04:56:45.368Z,1.90
2023-05-05T04:59:47.561Z,2.17
2023-05-05T05:02:49.784Z,3.30
2023-05-05T05:05:51.974Z,2.12
2023-05-05T05:08:54.162Z,2.20
2023-05-05T05:12:00.942Z,1.73
2023-05-05T05:15:03.365Z,2.05
2023-05-05T05:18:05.824Z,2.40
2023-05-05T05:21:08.460Z,1.75
2023-05-05T05:24:11.594Z,1.77
2023-05-05T05:27:13.816Z,1.70
2023-05-05T05:30:16.241Z,1.83
2023-05-05T05:33:18.919Z,1.90
2023-05-05T05:36:21.066Z,1.80
2023-05-05T05:39:23.324Z,1.90
2023-05-05T05:42:25.900Z,1.65
2023-05-05T05:45:28.070Z,1.92
2023-05-05T05:48:30.338Z,1.70
2023-05-05T05:51:32.528Z,1.98
2023-05-05T05:54:35.659Z,1.42
2023-05-05T05:57:37.851Z,1.45
2023-05-05T06:00:40.043Z,2.00
2023-05-05T06:03:42.318Z,1.45
2023-05-05T06:06:44.592Z,1.58
2023-05-05T06:09:47.208Z,1.80
2023-05-05T06:12:49.478Z,1.70
2023-05-05T06:15:51.747Z,1.60
2023-05-05T06:18:53.987Z,1.58
2023-05-05T06:21:56.304Z,1.15
2023-05-05T06:24:58.505Z,1.70
2023-05-05T06:28:00.706Z,1.27
2023-05-05T06:31:02.914Z,1.05
2023-05-05T06:34:05.107Z,1.37
2023-05-05T06:37:07.291Z,1.20
2023-05-05T06:40:10.583Z,1.30
2023-05-05T06:43:12.912Z,1.85
2023-05-05T06:46:15.234Z,1.77
2023-05-05T06:49:17.508Z,1.40
2023-05-05T06:52:19.672Z,1.30
2023-05-05T06:55:23.424Z,1.50
2023-05-05T06:58:25.612Z,1.58
2023-05-05T07:01:27.891Z,1.45
2023-05-05T07:04:30.058Z,1.20
2023-05-05T07:07:32.630Z,1.52
2023-05-05T07:10:35.101Z,1.50
2023-05-05T07:13:37.305Z,1.40
2023-05-05T07:16:39.665Z,1.42
2023-05-05T07:19:41.918Z,1.40
2023-05-05T07:22:44.153Z,1.40
2023-05-05T07:25:46.370Z,1.73
2023-05-05T07:28:48.525Z,2.28
2023-05-05T07:31:51.001Z,1.65
2023-05-05T07:34:53.215Z,1.33
2023-05-05T07:37:55.654Z,1.62
2023-05-05T07:40:57.972Z,1.67
2023-05-05T07:44:01.220Z,1.45
2023-05-05T07:47:03.432Z,1.50
2023-05-05T07:50:06.602Z,1.60
2023-05-05T07:53:14.522Z,1.48
2023-05-05T07:56:17.346Z,1.42
2023-05-05T07:59:19.518Z,1.50
2023-05-05T08:02:22.053Z,1.40
2023-05-05T08:05:24.316Z,1.40
2023-05-05T08:08:27.058Z,1.70
2023-05-05T08:11:29.745Z,1.50
2023-05-05T08:14:32.927Z,2.15
2023-05-05T08:17:46.844Z,1.80
2023-05-05T08:20:49.335Z,1.58
2023-05-05T08:23:51.464Z,1.70
2023-05-05T08:26:54.516Z,1.90
2023-05-05T08:29:57.710Z,1.60
2023-05-05T08:33:00.623Z,1.37
2023-05-05T08:36:02.867Z,1.65
2023-05-05T08:39:05.063Z,1.98
2023-05-05T08:42:07.849Z,1.50
2023-05-05T08:45:10.988Z,1.60
2023-05-05T08:48:13.666Z,1.62
2023-05-05T08:51:20.222Z,1.35
2023-05-05T08:54:23.705Z,1.37
2023-05-05T08:57:52.029Z,1.30
2023-05-05T09:00:54.736Z,1.60
2023-05-05T09:03:58.964Z,1.42
2023-05-05T09:07:01.221Z,1.52
2023-05-05T09:10:05.154Z,1.70
2023-05-05T09:13:07.415Z,1.70
2023-05-05T09:16:09.867Z,1.50
2023-05-05T09:19:12.088Z,1.65
2023-05-05T09:22:14.279Z,1.70
2023-05-05T09:25:18.371Z,1.50
2023-05-05T09:28:20.574Z,1.45
2023-05-05T09:31:22.861Z,1.58
2023-05-05T09:34:25.109Z,1.77
2023-05-05T09:37:31.507Z,1.80
2023-05-05T09:40:45.870Z,1.40
2023-05-05T09:43:52.417Z,1.67
2023-05-05T09:46:55.657Z,1.50
2023-05-05T09:50:00.825Z,1.48
2023-05-05T09:53:03.660Z,1.60
2023-05-05T09:56:06.986Z,1.77
2023-05-05T09:59:12.264Z,1.50
2023-05-05T10:02:14.423Z,1.87
2023-05-05T10:05:18.061Z,2.00
2023-05-05T10:08:25.899Z,1.90
2023-05-05T10:11:28.141Z,1.52
2023-05-05T10:14:31.868Z,1.60
2023-05-05T10:17:50.811Z,1.40
2023-05-05T10:21:03.290Z,1.20
2023-05-05T10:24:17.087Z,1.35
2023-05-05T10:27:20.600Z,1.70
2023-05-05T10:30:24.509Z,1.73
2023-05-05T10:33:35.365Z,1.62
2023-05-05T10:39:41.212Z,1.83
2023-05-05T10:42:43.628Z,1.60
2023-05-05T10:45:46.405Z,1.40
2023-05-05T10:49:15.477Z,1.35
2023-05-05T10:52:28.567Z,1.75
2023-05-05T10:55:57.491Z,1.70
2023-05-05T10:59:00.840Z,1.77
2023-05-05T11:02:26.938Z,1.65
2023-05-05T11:05:29.372Z,1.80
2023-05-05T11:08:32.694Z,2.00
2023-05-05T11:12:03.467Z,1.75
2023-05-05T11:15:31.780Z,1.50
2023-05-05T11:18:38.786Z,1.77
2023-05-05T11:21:59.971Z,2.33
2023-05-05T11:25:44.285Z,1.58
2023-05-05T11:29:01.137Z,1.90
2023-05-05T11:32:16.031Z,1.40
2023-05-05T11:35:18.290Z,1.40
2023-05-05T11:38:26.441Z,1.42
2023-05-05T11:41:34.149Z,1.33
2023-05-05T11:44:36.480Z,1.35
2023-05-05T11:47:39.052Z,1.30
2023-05-05T11:50:41.855Z,1.42
2023-05-05T11:53:45.437Z,1.35
2023-05-05T11:56:54.455Z,1.60
2023-05-05T11:59:56.665Z,1.50
2023-05-05T12:02:59.395Z,1.30
2023-05-05T12:06:02.355Z,1.52
2023-05-05T12:09:04.564Z,1.52
2023-05-05T12:12:07.417Z,1.45
2023-05-05T12:15:10.020Z,1.70
2023-05-05T12:18:21.631Z,1.60
2023-05-05T12:21:23.878Z,1.30
2023-05-05T12:24:26.075Z,1.95
2023-05-05T12:27:28.722Z,1.23
2023-05-05T12:30:30.987Z,1.30
2023-05-05T12:33:39.275Z,1.30
2023-05-05T12:36:41.793Z,1.30
2023-05-05T12:39:44.033Z,1.50
2023-05-05T12:42:46.445Z,1.52
2023-05-05T12:45:49.472Z,1.20
2023-05-05T12:49:04.953Z,1.52
2023-05-05T12:52:07.940Z,1.27
2023-05-05T12:55:11.208Z,1.48
2023-05-05T12:58:13.426Z,1.40
2023-05-05T13:01:15.690Z,1.45
2023-05-05T13:04:18.469Z,1.50
2023-05-05T13:07:21.856Z,1.15
2023-05-05T13:10:25.094Z,1.30
2023-05-05T13:13:27.275Z,1.25
2023-05-05T13:16:30.146Z,1.40
2023-05-05T13:19:35.472Z,1.40
2023-05-05T13:22:37.703Z,1.37
2023-05-05T13:25:39.901Z,1.42
2023-05-05T13:28:42.144Z,1.33
2023-05-05T13:31:45.137Z,1.37
2023-05-05T13:34:47.459Z,1.73
2023-05-05T13:37:49.676Z,1.30
2023-05-05T13:40:51.917Z,1.35
2023-05-05T13:43:54.189Z,1.40
2023-05-05T13:46:56.577Z,1.23
2023-05-05T13:49:58.896Z,1.42
2023-05-05T13:53:01.322Z,1.40
2023-05-05T13:56:03.786Z,1.25
2023-05-05T13:59:05.986Z,1.58
2023-05-05T14:02:10.827Z,1.48
2023-05-05T14:05:13.128Z,1.20
2023-05-05T14:08:15.468Z,1.27
2023-05-05T14:11:18.193Z,1.30
2023-05-05T14:14:20.420Z,1.27
2023-05-05T14:17:22.690Z,1.35
2023-05-05T14:20:25.131Z,1.50
2023-05-05T14:23:27.350Z,1.50
2023-05-05T14:26:29.526Z,1.55
2023-05-05T14:29:31.687Z,1.42
2023-05-05T14:32:33.828Z,1.62
2023-05-05T14:35:36.048Z,1.27
2023-05-05T14:38:38.213Z,2.05
2023-05-05T14:41:40.456Z,1.30
2023-05-05T14:44:42.676Z,1.27
2023-05-05T14:47:45.172Z,1.85
2023-05-05T14:50:48.063Z,1.67
2023-05-05T14:53:50.650Z,1.62
2023-05-05T14:56:52.880Z,1.65
2023-05-05T14:59:55.064Z,1.90
2023-05-05T15:02:57.413Z,1.60
2023-05-05T15:05:59.953Z,1.60
2023-05-05T15:09:02.217Z,1.52
2023-05-05T15:12:04.867Z,1.58
2023-05-05T15:15:08.611Z,1.40
2023-05-05T15:18:11.628Z,1.67
2023-05-05T15:21:13.816Z,1.23
2023-05-05T15:24:16.027Z,1.37
2023-05-05T15:27:18.668Z,1.62
2023-05-05T15:30:20.995Z,1.33
2023-05-05T15:33:23.266Z,1.35
2023-05-05T15:36:25.458Z,1.80
2023-05-05T15:39:27.760Z,1.50
2023-05-05T15:42:32.737Z,1.30
2023-05-05T15:45:35.204Z,1.55
2023-05-05T15:48:37.502Z,1.37
2023-05-05T15:51:39.935Z,1.58
2023-05-05T15:54:42.190Z,1.60
2023-05-05T15:57:44.468Z,1.50
2023-05-05T16:00:46.753Z,2.00
2023-05-05T16:03:49.027Z,1.52
2023-05-05T16:06:51.251Z,1.40
2023-05-05T16:09:53.516Z,1.58
2023-05-05T16:12:56.043Z,1.40
2023-05-05T16:15:58.320Z,1.55
2023-05-05T16:19:00.793Z,1.35
2023-05-05T16:22:03.075Z,1.45
2023-05-05T16:25:06.512Z,1.40
2023-05-05T16:28:08.835Z,1.50
2023-05-05T16:31:13.505Z,1.42
2023-05-05T16:34:16.498Z,1.60
2023-05-05T16:37:18.830Z,1.23
2023-05-05T16:40:21.161Z,1.80
2023-05-05T16:43:23.342Z,1.52
2023-05-05T16:46:25.745Z,1.83
2023-05-05T16:49:28.090Z,1.65
2023-05-05T16:52:30.350Z,1.50
2023-05-05T16:55:32.534Z,1.30
2023-05-05T16:58:34.736Z,1.70
2023-05-05T17:01:37.307Z,1.70
2023-05-05T17:04:39.725Z,1.58
2023-05-05T17:07:42.025Z,1.27
2023-05-05T17:10:45.120Z,1.35
2023-05-05T17:13:47.492Z,1.45
2023-05-05T17:16:50.678Z,1.40
2023-05-05T17:19:52.908Z,1.50
2023-05-05T17:22:55.157Z,1.48
2023-05-05T17:25:58.832Z,1.60
2023-05-05T17:29:01.421Z,1.48
2023-05-05T17:32:03.845Z,1.62
2023-05-05T17:35:06.856Z,1.42
2023-05-05T17:38:09.380Z,1.87
2023-05-05T17:41:11.563Z,1.73
2023-05-05T17:44:13.752Z,1.80
2023-05-05T17:47:15.963Z,1.58
2023-05-05T17:50:18.232Z,1.65
2023-05-05T17:53:21.105Z,1.45
2023-05-05T17:56:23.382Z,1.45
2023-05-05T17:59:25.893Z,1.52
2023-05-05T18:02:28.240Z,1.83
2023-05-05T18:05:30.835Z,1.80
2023-05-05T18:08:32.985Z,1.70
2023-05-05T18:11:35.960Z,1.30
2023-05-05T18:14:38.161Z,1.65
2023-05-05T18:17:40.797Z,1.70
2023-05-05T18:20:43.989Z,1.40
2023-05-05T18:23:46.325Z,1.60
2023-05-05T18:26:50.308Z,1.80
2023-05-05T18:29:52.662Z,1.77
2023-05-05T18:32:54.948Z,1.50
2023-05-05T18:35:57.799Z,1.87
2023-05-05T18:39:00.088Z,1.67
2023-05-05T18:42:03.231Z,1.75
2023-05-05T18:45:06.571Z,2.10
2023-05-05T18:48:08.898Z,1.90
2023-05-05T18:51:11.147Z,2.72
2023-05-05T18:54:13.337Z,2.00
2023-05-05T18:57:15.688Z,2.60
2023-05-05T19:00:19.848Z,2.67
2023-05-05T19:03:22.278Z,2.58
2023-05-05T19:06:24.518Z,2.37
2023-05-05T19:09:27.594Z,2.92
2023-05-05T19:12:30.272Z,2.40
2023-05-05T19:15:32.712Z,2.42
2023-05-05T19:18:35.007Z,2.35
2023-05-05T19:21:37.219Z,2.17
2023-05-05T19:24:39.469Z,2.72
2023-05-05T19:27:41.662Z,2.50
2023-05-05T19:30:43.936Z,2.72
2023-05-05T19:33:46.128Z,2.97
2023-05-05T19:36:48.417Z,3.28
2023-05-05T19:39:51.643Z,3.40
2023-05-05T19:42:53.915Z,3.12
2023-05-05T19:45:56.181Z,3.08
2023-05-05T19:48:58.394Z,4.45
2023-05-05T19:52:00.807Z,2.80
2023-05-05T19:55:03.962Z,3.17
2023-05-05T19:58:06.327Z,3.05
2023-05-05T20:01:08.568Z,3.65
2023-05-05T20:04:10.847Z,3.25
2023-05-05T20:07:13.156Z,3.50
2023-05-05T20:10:16.669Z,3.70
2023-05-05T20:13:18.907Z,3.30
2023-05-05T20:16:24.328Z,3.10
2023-05-05T20:19:26.578Z,3.62
2023-05-05T20:22:28.797Z,4.10
2023-05-05T20:25:31.020Z,4.40
2023-05-05T20:28:36.009Z,3.83
2023-05-05T20:31:38.247Z,3.97
2023-05-05T20:34:40.473Z,3.97
2023-05-05T20:37:45.041Z,3.50
2023-05-05T20:40:47.251Z,3.65
2023-05-05T20:43:49.452Z,4.45
2023-05-05T20:46:51.715Z,3.30
2023-05-05T20:49:54.333Z,4.60
2023-05-05T20:52:56.609Z,4.55
2023-05-05T20:55:58.857Z,4.22
2023-05-05T20:59:01.058Z,4.07
2023-05-05T21:02:03.527Z,4.47
2023-05-05T21:05:06.267Z,4.12
2023-05-05T21:08:08.526Z,4.53
2023-05-05T21:11:10.769Z,5.43
2023-05-05T21:14:13.385Z,4.70
2023-05-05T21:17:15.689Z,3.67
2023-05-05T21:20:18.733Z,5.18
2023-05-05T21:23:20.971Z,4.80
2023-05-05T21:26:25.064Z,3.65
2023-05-05T21:29:27.403Z,4.22
2023-05-05T21:32:29.781Z,3.70
2023-05-05T21:35:32.177Z,3.50
2023-05-05T21:38:34.577Z,4.00
2023-05-05T21:41:36.739Z,3.58
2023-05-05T21:44:38.972Z,3.35
2023-05-05T21:47:41.292Z,3.00
2023-05-05T21:50:43.924Z,2.90
2023-05-05T21:53:46.507Z,2.80
2023-05-05T21:56:49.002Z,2.20
2023-05-05T21:59:51.327Z,2.80
2023-05-05T22:02:53.680Z,2.80
2023-05-05T22:05:55.993Z,3.28
2023-05-05T22:08:58.248Z,2.62
2023-05-05T22:12:00.516Z,2.30
2023-05-05T22:15:02.793Z,2.40
2023-05-05T22:18:05.066Z,2.40
2023-05-05T22:21:07.300Z,2.22
2023-05-05T22:24:09.506Z,2.42
2023-05-05T22:27:11.867Z,1.87
2023-05-05T22:30:14.343Z,2.53
2023-05-05T22:33:16.854Z,2.35
2023-05-05T22:36:19.096Z,2.45
2023-05-05T22:39:21.288Z,2.65
2023-05-05T22:42:23.416Z,2.47
2023-05-05T22:45:26.188Z,2.28
2023-05-05T22:48:28.359Z,2.60
2023-05-05T22:51:30.543Z,2.50
2023-05-05T22:54:32.828Z,4.18
2023-05-05T22:57:36.132Z,7.37
2023-05-05T23:00:38.893Z,5.25
2023-05-05T23:03:41.528Z,3.17
2023-05-05T23:06:44.899Z,2.72
2023-05-05T23:09:47.303Z,2.67
2023-05-05T23:12:49.520Z,2.53
2023-05-05T23:15:51.838Z,2.65
2023-05-05T23:18:54.080Z,2.87
2023-05-05T23:21:56.914Z,2.30
2023-05-05T23:24:59.097Z,2.65
2023-05-05T23:28:01.460Z,2.37
2023-05-05T23:31:03.716Z,2.75
2023-05-05T23:34:06.322Z,2.47
2023-05-05T23:37:08.561Z,2.40
2023-05-05T23:40:11.068Z,2.20
2023-05-05T23:43:13.314Z,2.20
2023-05-05T23:46:15.711Z,2.65
2023-05-05T23:49:17.908Z,2.22
2023-05-05T23:52:20.096Z,2.45
2023-05-05T23:55:22.381Z,2.50
2023-05-05T23:58:24.580Z,2.40
